createdAt,value
2023-03-16T00:04:09.550Z,57.35
2023-03-16T00:09:13.514Z,57.22
2023-03-16T00:14:16.411Z,60.61
2023-03-16T00:19:19.730Z,68.43
2023-03-16T00:24:25.293Z,67.29
2023-03-16T00:29:28.808Z,61.46
2023-03-16T00:34:34.991Z,57.31
2023-03-16T00:39:37.900Z,59.54
2023-03-16T00:44:44.323Z,65.97
2023-03-16T00:49:47.178Z,69.32
2023-03-16T00:54:53.051Z,64.39
2023-03-16T00:59:56.615Z,61.17
2023-03-16T01:04:59.679Z,58.79
2023-03-16T01:10:03.923Z,56.71
2023-03-16T01:15:07.725Z,60.40
2023-03-16T01:20:12.571Z,68.55
2023-03-16T01:25:15.594Z,68.04
2023-03-16T01:30:18.914Z,63.01
2023-03-16T01:35:22.100Z,60.56
2023-03-16T01:40:25.271Z,57.28
2023-03-16T01:45:56.637Z,58.24
2023-03-16T01:50:59.817Z,67.52
2023-03-16T01:56:08.660Z,68.20
2023-03-16T02:01:14.244Z,63.68
2023-03-16T02:06:19.524Z,61.49
2023-03-16T02:11:23.723Z,57.83
2023-03-16T02:16:26.933Z,59.49
2023-03-16T02:21:39.296Z,65.87
2023-03-16T02:27:00.277Z,67.60
2023-03-16T02:32:03.401Z,64.38
2023-03-16T02:37:07.523Z,61.81
2023-03-16T02:42:15.690Z,60.45
2023-03-16T02:47:44.882Z,60.04
2023-03-16T02:52:48.697Z,58.98
2023-03-16T02:57:52.521Z,56.92
2023-03-16T03:02:55.440Z,60.07
2023-03-16T03:07:58.332Z,68.27
2023-03-16T03:13:01.343Z,70.07
2023-03-16T03:18:04.751Z,65.91
2023-03-16T03:23:07.982Z,62.72
2023-03-16T03:28:11.698Z,61.28
2023-03-16T03:33:14.595Z,60.20
2023-03-16T03:38:18.112Z,59.25
2023-03-16T03:43:22.062Z,57.09
2023-03-16T03:48:25.864Z,61.15
2023-03-16T03:53:28.768Z,70.13
2023-03-16T03:58:31.676Z,69.57
2023-03-16T04:03:34.880Z,65.03
2023-03-16T04:08:37.996Z,62.55
2023-03-16T04:13:41.404Z,60.86
2023-03-16T04:18:45.645Z,59.93
2023-03-16T04:23:50.056Z,58.38
2023-03-16T04:28:52.986Z,58.90
2023-03-16T04:33:55.892Z,68.05
2023-03-16T04:38:59.325Z,66.88
2023-03-16T04:44:02.313Z,63.86
2023-03-16T04:49:05.627Z,61.95
2023-03-16T04:54:08.636Z,60.72
2023-03-16T04:59:12.161Z,59.70
2023-03-16T05:04:19.105Z,57.74
2023-03-16T05:09:22.772Z,60.43
2023-03-16T05:14:25.683Z,68.42
2023-03-16T05:19:28.509Z,65.71
2023-03-16T05:24:31.387Z,62.01
2023-03-16T05:29:34.592Z,59.40
2023-03-16T05:34:37.804Z,57.07
2023-03-16T05:39:40.710Z,64.11
2023-03-16T05:44:45.056Z,62.10
2023-03-16T05:49:48.571Z,56.34
2023-03-16T05:54:51.574Z,58.99
2023-03-16T05:59:54.782Z,62.40
2023-03-16T06:04:59.643Z,55.44
2023-03-16T06:10:03.053Z,62.02
2023-03-16T06:15:08.002Z,60.36
2023-03-16T06:20:13.575Z,62.33
2023-03-16T06:25:17.220Z,56.81
2023-03-16T06:30:20.506Z,58.50
2023-03-16T06:35:23.715Z,61.38
2023-03-16T06:40:27.055Z,60.22
2023-03-16T06:45:30.141Z,52.91
2023-03-16T06:50:33.146Z,55.72
2023-03-16T06:55:36.052Z,57.96
2023-03-16T07:00:38.955Z,59.68
2023-03-16T07:05:41.855Z,58.67
2023-03-16T07:10:44.860Z,58.59
2023-03-16T07:15:52.364Z,57.68
2023-03-16T07:20:55.278Z,57.10
2023-03-16T07:25:58.287Z,54.68
2023-03-16T07:31:04.187Z,50.00
2023-03-16T07:36:10.790Z,49.24
2023-03-16T07:41:14.276Z,50.19
2023-03-16T07:46:17.837Z,45.87
2023-03-16T07:51:21.610Z,48.18
2023-03-16T07:56:24.924Z,50.03
2023-03-16T08:01:28.404Z,50.70
2023-03-16T08:06:31.452Z,51.83
2023-03-16T08:11:34.864Z,53.07
2023-03-16T08:16:37.879Z,54.79
2023-03-16T08:21:57.683Z,57.10
2023-03-16T08:27:03.985Z,59.76
2023-03-16T08:32:07.579Z,60.12
2023-03-16T08:37:11.810Z,61.21
2023-03-16T08:42:17.069Z,64.36
2023-03-16T08:47:20.583Z,58.39
2023-03-16T08:52:23.872Z,56.96
2023-03-16T08:57:27.419Z,59.69
2023-03-16T09:02:30.318Z,61.81
2023-03-16T09:07:35.790Z,65.16
2023-03-16T09:12:41.097Z,58.04
2023-03-16T09:17:45.361Z,59.45
2023-03-16T09:22:48.372Z,60.86
2023-03-16T09:27:51.388Z,59.86
2023-03-16T09:32:54.766Z,59.24
2023-03-16T09:38:06.864Z,60.04
2023-03-16T09:43:29.591Z,59.90
2023-03-16T09:48:36.102Z,59.87
2023-03-16T09:53:39.834Z,54.49
2023-03-16T09:58:43.423Z,49.85
2023-03-16T10:04:10.830Z,42.88
2023-03-16T10:09:26.399Z,42.43
2023-03-16T10:14:41.706Z,40.79
2023-03-16T10:19:58.193Z,45.26
2023-03-16T10:25:07.742Z,41.27
2023-03-16T10:30:36.339Z,38.10
2023-03-16T10:35:58.441Z,38.13
2023-03-16T10:41:01.402Z,37.52
2023-03-16T10:46:04.485Z,35.45
2023-03-16T10:51:12.681Z,36.52
2023-03-16T10:56:25.429Z,35.66
2023-03-16T11:01:29.600Z,32.70
2023-03-16T11:06:33.665Z,32.55
2023-03-16T11:11:37.070Z,33.45
2023-03-16T11:16:48.419Z,35.22
2023-03-16T11:22:13.250Z,38.17
2023-03-16T11:27:30.451Z,41.55
2023-03-16T11:32:37.597Z,44.47
2023-03-16T11:37:54.412Z,47.39
2023-03-16T11:43:06.743Z,47.75
2023-03-16T11:48:33.826Z,45.74
2023-03-16T11:53:59.003Z,45.82
2023-03-16T11:59:16.702Z,47.32
2023-03-16T12:04:27.695Z,50.63
2023-03-16T12:09:47.860Z,52.11
2023-03-16T12:15:08.326Z,53.06
2023-03-16T12:20:24.900Z,53.38
2023-03-16T12:25:33.142Z,53.41
2023-03-16T12:31:03.837Z,52.49
2023-03-16T12:36:25.116Z,52.53
2023-03-16T12:41:37.337Z,52.63
2023-03-16T12:46:59.335Z,53.89
2023-03-16T12:52:10.100Z,54.51
2023-03-16T12:57:17.558Z,55.50
2023-03-16T13:02:26.475Z,56.59
2023-03-16T13:07:32.010Z,57.13
2023-03-16T13:12:38.094Z,57.44
2023-03-16T13:17:41.266Z,57.83
2023-03-16T13:22:50.212Z,58.39
2023-03-16T13:27:56.632Z,58.61
2023-03-16T13:33:17.900Z,58.87
2023-03-16T13:38:25.894Z,58.47
2023-03-16T13:43:33.201Z,58.50
2023-03-16T13:48:38.678Z,59.29
2023-03-16T13:53:43.434Z,59.08
2023-03-16T13:58:49.272Z,59.87
2023-03-16T14:03:52.567Z,59.83
2023-03-16T14:09:06.053Z,59.58
2023-03-16T14:14:18.263Z,59.57
2023-03-16T14:19:32.412Z,59.52
2023-03-16T14:24:38.987Z,59.44
2023-03-16T14:29:43.674Z,59.42
2023-03-16T14:34:51.391Z,59.52
2023-03-16T14:40:20.817Z,59.46
2023-03-16T14:45:28.535Z,59.53
2023-03-16T14:50:32.513Z,59.40
2023-03-16T14:55:36.493Z,59.28
2023-03-16T15:00:52.344Z,59.27
2023-03-16T15:05:56.227Z,59.10
2023-03-16T15:11:02.679Z,56.89
2023-03-16T15:16:07.311Z,49.53
2023-03-16T15:21:17.335Z,46.53
2023-03-16T15:26:26.376Z,42.29
2023-03-16T15:31:29.328Z,37.29
2023-03-16T15:36:32.283Z,39.83
2023-03-16T15:41:46.695Z,41.67
2023-03-16T15:46:50.240Z,41.95
2023-03-16T15:51:53.203Z,45.15
2023-03-16T15:56:56.297Z,48.09
2023-03-16T16:01:59.404Z,50.38
2023-03-16T16:07:03.008Z,52.08
2023-03-16T16:12:06.752Z,53.55
2023-03-16T16:17:36.548Z,53.88
2023-03-16T16:22:47.419Z,54.38
2023-03-16T16:27:51.510Z,55.83
2023-03-16T16:32:56.895Z,56.85
2023-03-16T16:38:00.312Z,59.98
2023-03-16T16:43:06.339Z,61.29
2023-03-16T16:48:32.448Z,69.36
2023-03-16T16:53:36.042Z,68.57
2023-03-16T16:58:39.629Z,62.28
2023-03-16T17:03:42.634Z,54.20
2023-03-16T17:08:46.931Z,54.76
2023-03-16T17:13:52.821Z,56.49
2023-03-16T17:18:56.080Z,58.45
2023-03-16T17:24:00.525Z,60.35
2023-03-16T17:29:11.006Z,61.11
2023-03-16T17:34:29.289Z,69.19
2023-03-16T17:39:34.833Z,69.10
2023-03-16T17:44:41.325Z,63.02
2023-03-16T17:49:45.455Z,58.41
2023-03-16T17:54:49.856Z,55.91
2023-03-16T17:59:53.617Z,59.97
2023-03-16T18:04:56.342Z,66.85
2023-03-16T18:09:59.412Z,65.83
2023-03-16T18:15:03.244Z,61.11
2023-03-16T18:20:21.207Z,55.89
2023-03-16T18:25:32.211Z,54.64
2023-03-16T18:30:38.277Z,58.46
2023-03-16T18:35:43.492Z,60.54
2023-03-16T18:40:47.507Z,58.99
2023-03-16T18:45:51.100Z,59.36
2023-03-16T18:50:55.130Z,60.05
2023-03-16T18:55:58.223Z,67.91
2023-03-16T19:01:01.761Z,74.69
2023-03-16T19:06:06.284Z,69.44
2023-03-16T19:11:11.530Z,65.08
2023-03-16T19:16:17.878Z,61.56
2023-03-16T19:21:25.109Z,59.10
2023-03-16T19:26:28.708Z,52.41
2023-03-16T19:31:32.759Z,53.42
2023-03-16T19:36:35.534Z,55.29
2023-03-16T19:41:38.487Z,58.22
2023-03-16T19:46:42.043Z,59.74
2023-03-16T19:51:44.832Z,60.54
2023-03-16T19:56:48.124Z,67.50
2023-03-16T20:01:50.889Z,72.44
2023-03-16T20:06:54.238Z,66.14
2023-03-16T20:11:57.041Z,61.54
2023-03-16T20:17:00.412Z,55.59
2023-03-16T20:22:03.326Z,54.18
2023-03-16T20:27:11.826Z,57.62
2023-03-16T20:32:24.611Z,59.13
2023-03-16T20:37:30.959Z,60.55
2023-03-16T20:42:35.177Z,67.57
2023-03-16T20:47:37.961Z,70.64
2023-03-16T20:52:40.752Z,64.10
2023-03-16T20:57:44.696Z,60.52
2023-03-16T21:02:47.550Z,55.91
2023-03-16T21:07:52.945Z,58.61
2023-03-16T21:12:57.674Z,62.91
2023-03-16T21:18:07.409Z,69.95
2023-03-16T21:23:14.770Z,64.87
2023-03-16T21:28:19.945Z,60.05
2023-03-16T21:33:32.113Z,56.07
2023-03-16T21:38:34.941Z,56.89
2023-03-16T21:43:40.063Z,65.92
2023-03-16T21:48:43.426Z,68.70
2023-03-16T21:53:48.925Z,63.15
2023-03-16T21:58:53.717Z,60.27
2023-03-16T22:04:01.753Z,57.16
2023-03-16T22:09:04.787Z,58.61
2023-03-16T22:14:10.054Z,61.72
2023-03-16T22:19:17.896Z,69.57
2023-03-16T22:24:24.525Z,67.20
2023-03-16T22:29:30.155Z,64.05
2023-03-16T22:34:44.680Z,61.80
2023-03-16T22:39:48.329Z,58.39
2023-03-16T22:44:51.199Z,57.48
2023-03-16T22:49:54.106Z,62.73
2023-03-16T22:54:59.123Z,68.52
2023-03-16T23:00:11.280Z,65.81
2023-03-16T23:05:19.438Z,62.05
2023-03-16T23:10:25.701Z,58.41
2023-03-16T23:15:30.769Z,57.47
2023-03-16T23:20:33.764Z,61.35
2023-03-16T23:25:37.067Z,68.77
2023-03-16T23:30:40.080Z,67.06
2023-03-16T23:35:46.760Z,62.95
2023-03-16T23:40:49.925Z,60.56
2023-03-16T23:45:52.882Z,55.82
2023-03-16T23:50:56.398Z,57.27
2023-03-16T23:56:00.132Z,59.53
